Lakeville, Minnesota
Current Conditions -  °F | °C
As of 2:21 AM on Tuesday 27 Jan 2015 (Local Time) from KLVN Reporting Station
Overcast Overcast  
Wind Chill: 34°   Ceiling: 2300
Heat Index: 34°   Visibility: 10mi
Dew Point: 28°   Wind: 3mph
Humidity: 81%   Direction: 10°N
Pressure: 30.04"   Gusts: NA
Location:  44.66°N, 93.24°W
Report Text: KLVN 270821Z AUTO 01003KT 10SM OVC023 01/M02 A3004 RMK AO2
Loading
Personal Weather Stations






























Interactive Weather Map New forecast layout! Learn more

10-Day Weather Forecast

Advertisements
Track Severe Weather on mobile